Terminal Aerodrome Forecast
Issued by NWS Jackson, KY

Home | Current Version | Previous Version | Text Only | Print | Product List | Glossary On
Versions: 1 2 3 4 5 6 7 8 9 10 11 12 13
297
FTUS43 KJKL 170401 AAA
TAFJKL
TAF AMD
KJKL 170401Z 1704/1724 VRB04KT P6SM VCSH OVC015
     FM171900 29006KT P6SM SCT035=

USA.gov is the U.S. government's official web portal to all federal, state and local government web resources and services.